Time;durP1;ratioP1;P1;durP2;ratioP2;P2;SDS_P1;SDS_P2;PMS_P1;PMS_P2;Temp;Humidity;BMP_temperature;BMP_pressure;BME280_temperature;BME280_humidity;BME280_pressure;Samples;Min_cycle;Max_cycle;Signal;HPM_P1;HPM_P2
2023/02/20 00:01:58;;;;;;;19.63;7.97;;;;;;;7.47;100.00;102546.28;5047102;28;20031;-60
2023/02/20 00:04:23;;;;;;;20.65;7.43;;;;;;;7.40;100.00;102550.59;5045587;28;20033;-61
2023/02/20 00:06:49;;;;;;;18.58;8.27;;;;;;;7.36;100.00;102551.44;5047246;28;20063;-60
2023/02/20 00:09:15;;;;;;;16.45;7.93;;;;;;;7.34;100.00;102550.53;5046346;28;20029;-59
2023/02/20 00:11:40;;;;;;;18.15;7.93;;;;;;;7.34;100.00;102547.91;5046612;28;20033;-57
2023/02/20 00:14:05;;;;;;;20.42;8.13;;;;;;;7.29;100.00;102555.75;5046714;28;20033;-58
2023/02/20 00:16:31;;;;;;;17.20;8.68;;;;;;;7.26;100.00;102550.50;5047363;28;20025;-58
2023/02/20 00:18:56;;;;;;;14.93;8.15;;;;;;;7.23;100.00;102542.63;5051420;28;20032;-56
2023/02/20 00:21:22;;;;;;;22.75;8.20;;;;;;;7.16;100.00;102532.91;5049281;28;20033;-59
2023/02/20 00:23:47;;;;;;;25.60;9.10;;;;;;;7.13;100.00;102525.91;5051515;28;20029;-56
2023/02/20 00:26:13;;;;;;;20.65;8.73;;;;;;;7.04;100.00;102524.09;5050778;28;20021;-61
2023/02/20 00:28:40;;;;;;;18.42;8.25;;;;;;;7.09;100.00;102518.91;5050894;28;20036;-58
2023/02/20 00:31:06;;;;;;;28.40;8.05;;;;;;;7.04;100.00;102515.34;5050054;28;20021;-60
2023/02/20 00:33:32;;;;;;;23.02;8.85;;;;;;;6.98;100.00;102515.31;5048734;28;20572;-57
2023/02/20 00:35:58;;;;;;;18.95;7.57;;;;;;;6.98;100.00;102508.31;5049537;28;20017;-58
2023/02/20 00:38:23;;;;;;;25.98;8.65;;;;;;;6.90;100.00;102517.88;5049411;28;20044;-57
2023/02/20 00:40:48;;;;;;;24.17;9.15;;;;;;;7.01;100.00;102513.59;5050548;28;20475;-58
2023/02/20 00:43:14;;;;;;;20.52;9.40;;;;;;;7.02;100.00;102502.25;5049499;28;20028;-59
2023/02/20 00:45:39;;;;;;;20.75;8.85;;;;;;;6.94;100.00;102510.06;5048939;28;20037;-60
2023/02/20 00:48:04;;;;;;;30.40;10.18;;;;;;;6.99;100.00;102510.09;5048187;28;20493;-59
2023/02/20 00:50:30;;;;;;;20.83;9.73;;;;;;;6.99;100.00;102506.59;5048768;28;20494;-58
2023/02/20 00:52:55;;;;;;;22.45;8.30;;;;;;;7.00;100.00;102509.22;5049966;28;20463;-59
2023/02/20 00:55:20;;;;;;;27.77;9.82;;;;;;;7.00;100.00;102503.97;5050252;28;20029;-58
2023/02/20 00:57:46;;;;;;;25.58;9.75;;;;;;;6.97;100.00;102493.47;5050255;28;20036;-60
2023/02/20 01:00:19;;;;;;;29.58;10.60;;;;;;;6.96;100.00;102489.09;5049548;28;20059;-56
2023/02/20 01:02:45;;;;;;;26.13;10.10;;;;;;;6.90;100.00;102500.41;5049065;28;20056;-55
2023/02/20 01:05:10;;;;;;;25.23;9.82;;;;;;;6.89;100.00;102501.25;5048909;28;20060;-59
2023/02/20 01:07:35;;;;;;;29.52;11.00;;;;;;;6.92;100.00;102497.78;5048305;28;20056;-58
2023/02/20 01:10:01;;;;;;;24.73;10.15;;;;;;;6.91;100.00;102490.78;5050074;28;20474;-61
2023/02/20 01:12:26;;;;;;;30.05;11.70;;;;;;;6.94;100.00;102478.59;5049047;28;20036;-59
2023/02/20 01:14:52;;;;;;;23.73;11.02;;;;;;;6.99;100.00;102478.66;5049510;28;20586;-59
2023/02/20 01:17:17;;;;;;;28.10;12.48;;;;;;;6.96;100.00;102473.38;5049415;28;20032;-59
2023/02/20 01:19:43;;;;;;;30.60;12.30;;;;;;;6.90;100.00;102460.22;5048933;28;20040;-59
2023/02/20 01:22:08;;;;;;;33.40;13.18;;;;;;;6.90;100.00;102461.13;5049443;28;20060;-59
2023/02/20 01:24:34;;;;;;;32.22;12.80;;;;;;;6.85;100.00;102454.06;5049052;28;20125;-56
2023/02/20 01:26:59;;;;;;;39.50;14.38;;;;;;;6.81;100.00;102451.41;5049377;28;20041;-57
2023/02/20 01:29:25;;;;;;;44.25;16.25;;;;;;;6.84;100.00;102447.97;5045583;28;20120;-57
2023/02/20 01:31:51;;;;;;;39.65;16.08;;;;;;;6.79;100.00;102441.78;5049383;28;20044;-58
2023/02/20 01:34:17;;;;;;;35.70;15.38;;;;;;;6.71;100.00;102446.97;5048378;28;20025;-59
2023/02/20 01:36:50;;;;;;;38.90;18.02;;;;;;;6.75;100.00;102446.16;5047462;28;20699;-55
2023/02/20 01:39:20;;;;;;;51.50;18.42;;;;;;;6.74;100.00;102433.88;5048640;28;20032;-57
2023/02/20 01:41:47;;;;;;;44.08;19.20;;;;;;;6.78;100.00;102422.59;5048089;28;20041;-59
2023/02/20 01:44:24;;;;;;;43.70;19.40;;;;;;;6.79;100.00;102413.84;5048719;28;20055;-60
2023/02/20 01:46:52;;;;;;;49.80;21.15;;;;;;;6.92;100.00;102413.91;5048223;28;20029;-59
2023/02/20 01:49:26;;;;;;;50.25;22.35;;;;;;;6.93;100.00;102416.56;5048988;28;20033;-59
2023/02/20 01:51:56;;;;;;;59.35;24.35;;;;;;;7.02;100.00;102421.00;5047955;28;20029;-62
2023/02/20 01:54:22;;;;;;;49.60;24.27;;;;;;;7.10;100.00;102414.94;5047354;28;20439;-61
2023/02/20 01:56:48;;;;;;;56.88;26.58;;;;;;;7.17;100.00;102414.09;5048106;28;20017;-58
2023/02/20 01:59:15;;;;;;;57.80;25.95;;;;;;;7.31;100.00;102406.28;5046665;28;20787;-59
2023/02/20 02:01:40;;;;;;;66.45;26.58;;;;;;;7.41;100.00;102394.97;5047796;28;20638;-57
2023/02/20 02:04:07;;;;;;;53.67;24.70;;;;;;;7.44;100.00;102396.75;5047368;28;20087;-60
2023/02/20 02:06:35;;;;;;;59.60;25.55;;;;;;;7.56;100.00;102390.69;5046407;28;20033;-57
2023/02/20 02:09:08;;;;;;;54.92;24.48;;;;;;;7.62;100.00;102388.09;5046508;28;20098;-59
2023/02/20 02:11:35;;;;;;;56.13;23.75;;;;;;;7.68;100.00;102384.59;5045798;28;20025;-57
2023/02/20 02:14:01;;;;;;;53.67;23.27;;;;;;;7.74;100.00;102378.50;5046161;28;20482;-58
2023/02/20 02:16:33;;;;;;;54.72;24.30;;;;;;;7.83;100.00;102371.50;5048107;28;20032;-61
2023/02/20 02:19:23;;;;;;;52.72;23.85;;;;;;;7.89;100.00;102369.78;5046379;28;20036;-58
2023/02/20 02:21:52;;;;;;;49.60;23.60;;;;;;;7.83;100.00;102371.50;5048534;28;20595;-57
2023/02/20 02:24:29;;;;;;;60.17;23.60;;;;;;;7.90;100.00;102374.16;5047147;28;20416;-59
2023/02/20 02:27:21;;;;;;;55.13;23.55;;;;;;;7.96;100.00;102364.56;5028596;28;20374;-58
2023/02/20 02:29:57;;;;;;;51.55;21.98;;;;;;;8.03;100.00;102370.69;5026670;28;20084;-56
2023/02/20 02:32:28;;;;;;;52.25;22.95;;;;;;;8.12;100.00;102358.44;5045115;28;20044;-61
2023/02/20 02:35:04;;;;;;;55.03;23.85;;;;;;;8.05;100.00;102366.31;5047096;28;20029;-58
2023/02/20 02:37:39;;;;;;;44.28;22.33;;;;;;;8.00;100.00;102365.41;5045965;28;20029;-59
2023/02/20 02:40:17;;;;;;;47.20;21.50;;;;;;;8.01;100.00;102361.91;5045909;28;20037;-58
2023/02/20 02:42:58;;;;;;;40.83;21.13;;;;;;;8.08;100.00;102363.69;5045509;28;20041;-59
2023/02/20 02:45:46;;;;;;;44.55;21.13;;;;;;;8.11;100.00;102365.44;5047020;28;20116;-58
2023/02/20 02:48:31;;;;;;;41.95;21.65;;;;;;;8.15;100.00;102368.94;5026738;28;20662;-59
2023/02/20 02:51:02;;;;;;;43.15;22.90;;;;;;;8.14;100.00;102367.19;5025702;28;20491;-58
2023/02/20 02:53:27;;;;;;;46.75;21.38;;;;;;;8.16;100.00;102376.81;5045528;28;20052;-61
2023/02/20 02:55:52;;;;;;;51.58;21.20;;;;;;;8.05;100.00;102360.19;5046989;28;20464;-60
2023/02/20 02:58:18;;;;;;;52.28;21.27;;;;;;;8.12;100.00;102364.56;5044702;28;20526;-61
2023/02/20 03:00:52;;;;;;;51.13;23.00;;;;;;;8.21;100.00;102368.94;5027849;28;20036;-59
2023/02/20 03:03:18;;;;;;;45.15;20.30;;;;;;;8.24;100.00;102362.84;5045192;28;20436;-56
2023/02/20 03:06:05;;;;;;;46.47;21.23;;;;;;;8.10;100.00;102350.56;5044583;28;20033;-60
2023/02/20 03:08:36;;;;;;;43.05;20.08;;;;;;;8.21;100.00;102358.44;5046154;28;20060;-57
2023/02/20 03:11:16;;;;;;;43.47;18.45;;;;;;;8.16;100.00;102344.44;5045469;28;20036;-60
2023/02/20 03:17:04;;;;;;;52.20;19.45;;;;;;;8.25;100.00;102343.56;5046611;28;20075;-57
2023/02/20 03:19:37;;;;;;;41.45;18.58;;;;;;;8.22;100.00;102360.22;5044038;28;20060;-59
2023/02/20 03:22:11;;;;;;;54.97;19.27;;;;;;;8.22;100.00;102362.84;5046528;28;20032;-59
2023/02/20 03:24:53;;;;;;;54.30;17.95;;;;;;;8.30;100.00;102357.56;5046225;28;20039;-58
2023/02/20 03:27:22;;;;;;;47.47;17.17;;;;;;;8.31;100.00;102364.59;5047271;28;20049;-60
2023/02/20 03:29:49;;;;;;;52.55;17.05;;;;;;;8.28;100.00;102365.44;5046575;28;20021;-56
2023/02/20 03:43:31;;;;;;;35.88;13.00;;;;;;;8.34;100.00;102344.44;5046782;28;20051;-59
2023/02/20 03:46:07;;;;;;;35.30;12.43;;;;;;;8.45;100.00;102343.53;5044338;28;20559;-60
2023/02/20 03:48:45;;;;;;;38.83;12.77;;;;;;;8.44;100.00;102349.69;5044719;28;20112;-56
2023/02/20 03:51:11;;;;;;;38.67;12.25;;;;;;;8.42;100.00;102346.16;5044773;28;20430;-60
2023/02/20 03:53:37;;;;;;;35.05;11.98;;;;;;;8.40;100.00;102334.81;5050133;28;20029;-58
2023/02/20 03:56:05;;;;;;;38.00;14.10;;;;;;;8.42;100.00;102336.56;5050677;28;20056;-57
2023/02/20 03:58:33;;;;;;;37.03;12.65;;;;;;;8.42;100.00;102323.41;5050048;28;20082;-59
2023/02/20 04:00:59;;;;;;;39.35;13.13;;;;;;;8.51;100.00;102335.66;5049916;28;20029;-59
2023/02/20 04:03:27;;;;;;;41.67;14.07;;;;;;;8.51;100.00;102327.78;5050181;28;20031;-57
2023/02/20 04:05:54;;;;;;;40.75;12.30;;;;;;;8.51;100.00;102322.53;5048073;28;20075;-58
2023/02/20 04:08:25;;;;;;;37.75;12.55;;;;;;;8.50;100.00;102338.28;5049805;28;20063;-58
2023/02/20 04:10:50;;;;;;;41.25;12.95;;;;;;;8.50;100.00;102333.94;5049345;28;20482;-59
2023/02/20 04:13:16;;;;;;;41.22;12.38;;;;;;;8.39;100.00;102330.41;5050698;28;20056;-56
2023/02/20 04:15:42;;;;;;;39.05;12.77;;;;;;;8.48;100.00;102338.28;5048541;28;20033;-58
2023/02/20 04:18:10;;;;;;;34.92;11.50;;;;;;;8.52;100.00;102337.41;5049768;28;20029;-56
2023/02/20 04:20:36;;;;;;;36.20;13.13;;;;;;;8.55;100.00;102334.81;5047189;28;20024;-55
2023/02/20 04:23:06;;;;;;;29.33;10.60;;;;;;;8.53;100.00;102322.53;5048955;28;20017;-61
2023/02/20 04:25:46;;;;;;;36.33;11.95;;;;;;;8.59;100.00;102326.06;5047963;28;20467;-59
2023/02/20 04:28:13;;;;;;;29.02;11.63;;;;;;;8.52;100.00;102341.81;5032110;28;20048;-58
2023/02/20 04:30:39;;;;;;;44.38;11.90;;;;;;;8.59;100.00;102333.94;5048106;28;20052;-54
2023/02/20 04:33:04;;;;;;;33.65;12.32;;;;;;;8.61;100.00;102319.94;5049147;28;20032;-58
2023/02/20 04:35:29;;;;;;;33.65;12.25;;;;;;;8.51;100.00;102335.66;5046930;28;20040;-59
2023/02/20 04:37:55;;;;;;;39.67;11.50;;;;;;;8.61;100.00;102326.03;5050080;28;20486;-58
2023/02/20 04:40:22;;;;;;;46.33;12.32;;;;;;;8.58;100.00;102336.59;5049238;28;20036;-59
2023/02/20 04:42:47;;;;;;;34.72;10.05;;;;;;;8.56;100.00;102333.06;5050750;28;20079;-59
2023/02/20 04:45:13;;;;;;;30.88;10.38;;;;;;;8.55;100.00;102342.69;5049716;28;20462;-59
2023/02/20 04:47:38;;;;;;;30.30;11.48;;;;;;;8.54;100.00;102330.44;5047814;28;20068;-59
2023/02/20 04:50:04;;;;;;;37.67;11.75;;;;;;;8.56;100.00;102330.44;5048857;28;20136;-58
2023/02/20 04:52:29;;;;;;;34.47;10.93;;;;;;;8.50;100.00;102349.69;5047193;28;20072;-59
2023/02/20 04:54:54;;;;;;;30.73;10.48;;;;;;;8.50;100.00;102349.69;5049125;28;20100;-57
2023/02/20 04:57:21;;;;;;;26.92;10.10;;;;;;;8.39;100.00;102341.81;5049545;28;20067;-59
2023/02/20 04:59:46;;;;;;;35.35;10.70;;;;;;;8.49;100.00;102334.78;5050385;28;20078;-56
2023/02/20 05:02:12;;;;;;;36.50;9.90;;;;;;;8.47;100.00;102329.56;5046397;28;20103;-57
2023/02/20 05:04:37;;;;;;;25.10;9.65;;;;;;;8.45;100.00;102336.56;5049038;28;20108;-57
2023/02/20 05:07:02;;;;;;;32.63;11.23;;;;;;;8.51;100.00;102340.03;5048623;28;20025;-57
2023/02/20 05:09:28;;;;;;;34.50;10.90;;;;;;;8.53;100.00;102328.66;5049459;28;20729;-57
2023/02/20 05:11:53;;;;;;;23.88;11.13;;;;;;;8.53;100.00;102351.44;5047915;28;20021;-60
2023/02/20 05:14:20;;;;;;;34.85;11.10;;;;;;;8.56;100.00;102352.34;5050066;28;20114;-59
2023/02/20 05:16:46;;;;;;;36.58;11.65;;;;;;;8.46;100.00;102348.81;5048461;28;20021;-59
2023/02/20 05:19:13;;;;;;;45.75;11.52;;;;;;;8.52;100.00;102347.06;5047307;28;20064;-59
2023/02/20 05:24:27;;;;;;;33.60;11.80;;;;;;;8.40;100.00;102337.44;5047897;28;20497;-57
2023/02/20 05:26:52;;;;;;;27.95;11.68;;;;;;;8.41;100.00;102350.56;5049077;28;20183;-59
2023/02/20 05:29:17;;;;;;;34.05;11.55;;;;;;;8.36;100.00;102347.06;5048807;28;20111;-60
2023/02/20 05:31:43;;;;;;;33.53;11.93;;;;;;;8.43;100.00;102355.81;5048795;28;20033;-59
2023/02/20 05:34:08;;;;;;;29.77;12.05;;;;;;;8.36;100.00;102346.19;5043560;28;20053;-57
2023/02/20 05:36:34;;;;;;;34.30;11.98;;;;;;;8.34;100.00;102357.56;5047142;28;20021;-55
2023/02/20 05:38:59;;;;;;;27.10;12.30;;;;;;;8.25;100.00;102349.69;5030524;28;20040;-58
2023/02/20 05:41:25;;;;;;;37.30;11.68;;;;;;;8.26;100.00;102355.81;5046773;28;20380;-56
2023/02/20 05:43:52;;;;;;;31.13;11.23;;;;;;;8.24;100.00;102349.69;5047858;28;20025;-56
2023/02/20 05:46:17;;;;;;;36.15;11.10;;;;;;;8.34;100.00;102352.31;5048501;28;20179;-54
2023/02/20 05:48:47;;;;;;;33.28;12.50;;;;;;;8.31;100.00;102336.56;5047070;28;20499;-57
2023/02/20 05:51:21;;;;;;;32.38;12.15;;;;;;;8.29;100.00;102342.69;5047580;28;20477;-58
2023/02/20 05:53:46;;;;;;;30.35;12.70;;;;;;;8.36;100.00;102343.56;5048857;28;20029;-56
2023/02/20 05:56:12;;;;;;;33.67;12.88;;;;;;;8.36;100.00;102338.31;5048265;28;20028;-56
2023/02/20 05:58:37;;;;;;;24.13;10.80;;;;;;;8.39;100.00;102346.16;5046230;28;20029;-60
2023/02/20 06:01:02;;;;;;;33.03;11.27;;;;;;;8.46;100.00;102342.69;5047596;28;20476;-59
2023/02/20 06:03:28;;;;;;;26.77;10.48;;;;;;;8.49;100.00;102340.03;5045751;28;20468;-56
2023/02/20 06:05:55;;;;;;;36.70;11.27;;;;;;;8.33;100.00;102341.81;5045957;28;20072;-60
2023/02/20 06:08:20;;;;;;;26.55;11.02;;;;;;;8.29;100.00;102337.44;5047487;28;20452;-60
2023/02/20 06:10:46;;;;;;;29.70;10.75;;;;;;;8.34;100.00;102339.19;5046469;28;20021;-60
2023/02/20 06:13:11;;;;;;;26.88;10.90;;;;;;;8.33;100.00;102329.56;5046425;28;20029;-58
2023/02/20 06:15:37;;;;;;;33.33;11.73;;;;;;;8.27;100.00;102339.16;5045583;28;20115;-60
2023/02/20 06:18:02;;;;;;;38.03;11.85;;;;;;;8.23;100.00;102340.94;5044930;28;20021;-56
2023/02/20 06:20:28;;;;;;;30.77;10.38;;;;;;;8.32;100.00;102340.06;5045268;28;20025;-55
2023/02/20 06:22:53;;;;;;;25.92;11.20;;;;;;;8.16;100.00;102331.31;5046508;28;20021;-56
2023/02/20 06:25:18;;;;;;;34.40;10.18;;;;;;;8.19;100.00;102341.81;5047024;28;20116;-57
2023/02/20 06:27:44;;;;;;;37.00;10.95;;;;;;;8.27;100.00;102336.53;5046835;28;20053;-61
2023/02/20 06:30:10;;;;;;;32.42;11.10;;;;;;;8.22;100.00;102324.28;5046287;28;20190;-57
2023/02/20 06:32:35;;;;;;;39.22;11.05;;;;;;;8.17;100.00;102331.31;5045232;28;20025;-58
2023/02/20 06:35:00;;;;;;;37.35;11.73;;;;;;;8.29;100.00;102333.06;5047585;28;20089;-58
2023/02/20 06:37:26;;;;;;;30.88;10.00;;;;;;;8.43;100.00;102350.56;5046356;28;20123;-60
2023/02/20 06:39:51;;;;;;;37.25;11.18;;;;;;;8.35;100.00;102340.06;5046301;28;20064;-61
2023/02/20 06:42:16;;;;;;;23.20;9.70;;;;;;;8.38;100.00;102352.31;5045756;28;20032;-59
2023/02/20 06:44:42;;;;;;;26.73;9.77;;;;;;;8.39;100.00;102336.56;5046390;28;20416;-62
2023/02/20 06:47:08;;;;;;;35.13;11.13;;;;;;;8.33;100.00;102326.94;5044105;28;20025;-60
2023/02/20 06:49:36;;;;;;;29.75;10.32;;;;;;;8.37;100.00;102333.03;5045502;28;20021;-56
2023/02/20 06:52:02;;;;;;;29.40;9.57;;;;;;;8.39;100.00;102338.28;5045294;28;20028;-60
2023/02/20 06:54:27;;;;;;;21.00;8.30;;;;;;;8.21;100.00;102356.69;5045842;28;20036;-58
2023/02/20 06:56:53;;;;;;;27.90;8.40;;;;;;;8.31;100.00;102347.06;5044807;28;20036;-59
2023/02/20 06:59:18;;;;;;;39.75;9.63;;;;;;;8.33;100.00;102339.19;5046243;28;20063;-57
2023/02/20 07:01:43;;;;;;;42.25;8.90;;;;;;;8.25;100.00;102344.41;5044825;28;20464;-59
2023/02/20 07:04:20;;;;;;;39.83;9.57;;;;;;;8.42;100.00;102335.66;5045023;28;20562;-59
2023/02/20 07:06:46;;;;;;;30.77;7.82;;;;;;;8.33;100.00;102347.06;5045468;28;20075;-58
2023/02/20 07:09:12;;;;;;;31.23;8.43;;;;;;;8.44;100.00;102341.81;5045821;28;20025;-58
2023/02/20 07:11:37;;;;;;;35.72;9.73;;;;;;;8.36;100.00;102351.47;5041552;28;20386;-59
2023/02/20 07:14:03;;;;;;;31.02;8.60;;;;;;;8.37;100.00;102353.19;5036113;28;20022;-59
2023/02/20 07:16:30;;;;;;;27.77;7.80;;;;;;;8.39;100.00;102348.78;5038103;28;20102;-57
2023/02/20 07:18:55;;;;;;;29.17;8.20;;;;;;;8.57;100.00;102354.09;5044503;28;20024;-60
2023/02/20 07:21:20;;;;;;;30.20;7.00;;;;;;;8.59;100.00;102360.22;5043580;28;20025;-59
2023/02/20 07:23:46;;;;;;;33.28;9.10;;;;;;;8.64;100.00;102356.72;5034062;28;20229;-54
2023/02/20 07:26:25;;;;;;;31.20;8.38;;;;;;;8.47;100.00;102342.69;5038552;28;20028;-57
2023/02/20 07:28:51;;;;;;;23.63;7.35;;;;;;;8.52;100.00;102353.16;5036290;28;20120;-59
2023/02/20 07:31:16;;;;;;;21.05;7.32;;;;;;;8.54;100.00;102351.47;5038545;28;20021;-60
2023/02/20 07:33:42;;;;;;;25.48;8.07;;;;;;;8.62;100.00;102358.47;5029813;28;20025;-60
2023/02/20 07:36:09;;;;;;;27.50;7.57;;;;;;;8.55;100.00;102357.59;5027538;28;20025;-58
2023/02/20 07:38:34;;;;;;;30.17;7.53;;;;;;;8.58;100.00;102347.94;5043413;28;20052;-60
2023/02/20 07:41:00;;;;;;;24.73;7.93;;;;;;;8.46;100.00;102351.44;5041402;28;20435;-60
2023/02/20 07:43:25;;;;;;;21.85;7.20;;;;;;;8.51;100.00;102375.06;5044617;28;20098;-55
2023/02/20 07:45:50;;;;;;;26.85;8.27;;;;;;;8.63;100.00;102354.94;5044110;28;20024;-58
2023/02/20 07:48:16;;;;;;;30.60;7.13;;;;;;;8.63;100.00;102355.81;5039933;28;20025;-60
2023/02/20 07:50:41;;;;;;;18.55;7.82;;;;;;;8.63;100.00;102363.72;5046321;28;20057;-58
2023/02/20 07:53:06;;;;;;;27.33;8.50;;;;;;;8.58;100.00;102363.72;5046068;28;20041;-58
2023/02/20 07:55:32;;;;;;;33.75;10.07;;;;;;;8.71;100.00;102379.47;5031252;28;20094;-56
2023/02/20 07:57:57;;;;;;;30.65;8.98;;;;;;;8.74;100.00;102374.22;5042630;28;20029;-60
2023/02/20 08:00:24;;;;;;;19.67;8.02;;;;;;;8.72;100.00;102353.19;5040393;28;20021;-60
2023/02/20 08:02:49;;;;;;;24.13;8.15;;;;;;;8.74;100.00;102358.44;5038822;28;20036;-60
2023/02/20 08:05:15;;;;;;;28.98;8.77;;;;;;;8.68;100.00;102363.72;5033233;28;20022;-57
2023/02/20 08:07:47;;;;;;;27.73;9.13;;;;;;;8.71;100.00;102363.72;5044802;28;20041;-56
2023/02/20 08:10:15;;;;;;;24.52;8.43;;;;;;;8.68;100.00;102358.44;5045903;28;20506;-61
2023/02/20 08:12:40;;;;;;;23.52;8.18;;;;;;;8.73;100.00;102354.06;5045108;28;20037;-59
2023/02/20 08:15:06;;;;;;;21.63;9.10;;;;;;;8.73;100.00;102351.41;5046348;28;20448;-59
2023/02/20 08:17:31;;;;;;;27.25;9.65;;;;;;;8.76;100.00;102354.03;5045271;28;20057;-59
2023/02/20 08:19:57;;;;;;;20.13;8.80;;;;;;;8.74;100.00;102337.44;5046446;28;20029;-58
2023/02/20 08:22:22;;;;;;;25.90;10.15;;;;;;;8.84;100.00;102369.81;5046462;28;20025;-62
2023/02/20 08:24:47;;;;;;;21.67;8.65;;;;;;;8.77;100.00;102345.31;5047086;28;20024;-61
2023/02/20 08:27:13;;;;;;;26.73;9.43;;;;;;;8.80;100.00;102352.31;5046607;28;20041;-62
2023/02/20 08:29:38;;;;;;;26.35;10.05;;;;;;;8.97;100.00;102350.50;5045720;28;20379;-59
2023/02/20 08:32:04;;;;;;;26.77;9.55;;;;;;;8.90;100.00;102369.81;5043644;28;20036;-59
2023/02/20 08:34:29;;;;;;;28.02;9.80;;;;;;;8.92;100.00;102357.53;5045674;28;20040;-59
2023/02/20 08:36:54;;;;;;;28.58;10.75;;;;;;;8.89;100.00;102360.16;5046628;28;20072;-59
2023/02/20 08:39:19;;;;;;;35.53;12.05;;;;;;;8.91;100.00;102360.16;5048506;28;20041;-57
2023/02/20 08:41:46;;;;;;;31.15;9.23;;;;;;;8.82;100.00;102358.44;5047820;28;20033;-59
2023/02/20 08:44:12;;;;;;;24.83;10.65;;;;;;;8.85;100.00;102356.66;5050116;28;20094;-61
2023/02/20 08:46:44;;;;;;;29.30;11.05;;;;;;;8.98;100.00;102361.91;5048444;28;20029;-57
2023/02/20 08:49:10;;;;;;;29.17;11.02;;;;;;;8.86;100.00;102349.66;5048188;28;20061;-61
2023/02/20 08:51:35;;;;;;;24.02;9.20;;;;;;;8.90;100.00;102358.41;5049512;28;20450;-60
2023/02/20 08:54:00;;;;;;;23.70;9.75;;;;;;;9.05;100.00;102342.59;5049374;28;20475;-59
2023/02/20 08:56:26;;;;;;;26.00;9.98;;;;;;;9.18;100.00;102340.78;5049451;28;20051;-60
2023/02/20 08:58:52;;;;;;;25.17;8.93;;;;;;;9.03;100.00;102344.34;5048457;28;20112;-61
2023/02/20 09:01:17;;;;;;;26.10;8.32;;;;;;;9.06;100.00;102327.69;5048426;28;20060;-60
2023/02/20 09:03:43;;;;;;;16.77;7.65;;;;;;;9.02;100.00;102315.44;5047165;28;20057;-61
2023/02/20 09:06:08;;;;;;;17.35;8.13;;;;;;;9.25;100.00;102327.63;5049106;28;20425;-59
2023/02/20 09:08:33;;;;;;;17.33;7.93;;;;;;;9.28;100.00;102317.97;5049158;28;20047;-61
2023/02/20 09:10:59;;;;;;;19.50;7.82;;;;;;;9.42;100.00;102327.56;5048189;28;20048;-57
2023/02/20 09:13:24;;;;;;;14.73;7.57;;;;;;;9.41;100.00;102326.66;5047818;28;20082;-62
2023/02/20 09:15:49;;;;;;;16.70;7.47;;;;;;;9.32;100.00;102335.47;5047733;28;20494;-61
2023/02/20 09:18:15;;;;;;;16.70;7.57;;;;;;;9.42;100.00;102324.91;5047850;28;20050;-58
2023/02/20 09:20:41;;;;;;;18.70;6.85;;;;;;;9.43;100.00;102352.97;5047904;28;20025;-55
2023/02/20 09:23:06;;;;;;;21.23;7.47;;;;;;;9.45;100.00;102351.22;5048574;28;20033;-60
2023/02/20 09:25:32;;;;;;;20.60;7.18;;;;;;;9.65;100.00;102342.31;5048897;28;20110;-60
2023/02/20 09:27:57;;;;;;;14.98;6.68;;;;;;;9.44;100.00;102354.72;5049007;28;20128;-59
2023/02/20 09:30:23;;;;;;;24.92;7.95;;;;;;;9.35;100.00;102343.38;5048340;28;20082;-65
2023/02/20 09:32:49;;;;;;;20.38;6.43;;;;;;;9.51;100.00;102353.78;5046414;28;20029;-62
2023/02/20 09:35:32;;;;;;;22.92;7.00;;;;;;;9.50;100.00;102354.69;5047841;28;20515;-64
2023/02/20 09:37:58;;;;;;;17.77;7.50;;;;;;;9.34;100.00;102341.59;5047799;28;20044;-61
2023/02/20 09:40:25;;;;;;;17.65;6.97;;;;;;;9.35;100.00;102359.16;5046910;28;20479;-60
2023/02/20 09:43:00;;;;;;;20.75;6.72;;;;;;;9.41;100.00;102350.34;5046995;28;20064;-60
2023/02/20 09:45:28;;;;;;;18.55;7.03;;;;;;;9.41;100.00;102362.63;5047431;28;20044;-62
2023/02/20 09:48:12;;;;;;;22.60;6.40;;;;;;;9.27;100.00;102347.75;5044381;28;20053;-59
2023/02/20 09:50:46;;;;;;;17.58;6.47;;;;;;;9.26;100.00;102353.03;5046471;28;20567;-59
2023/02/20 09:53:24;;;;;;;16.00;6.40;;;;;;;9.34;100.00;102344.22;5044528;28;20056;-57
2023/02/20 09:55:50;;;;;;;16.83;6.85;;;;;;;9.43;100.00;102363.50;5048443;28;20028;-61
2023/02/20 09:58:39;;;;;;;17.02;6.65;;;;;;;9.47;100.00;102349.44;5047094;28;20029;-61
2023/02/20 10:01:05;;;;;;;24.85;7.43;;;;;;;9.47;100.00;102333.66;5046187;28;20480;-58
2023/02/20 10:03:36;;;;;;;17.33;6.82;;;;;;;9.41;100.00;102347.72;5046121;28;20546;-59
2023/02/20 10:06:07;;;;;;;17.70;7.32;;;;;;;9.33;100.00;102342.47;5045205;28;20394;-61
2023/02/20 10:08:36;;;;;;;17.23;7.28;;;;;;;9.28;100.00;102301.31;5043725;28;20025;-60
2023/02/20 10:11:03;;;;;;;18.43;7.10;;;;;;;9.32;100.00;102334.59;5044756;28;20395;-63
2023/02/20 10:13:42;;;;;;;16.63;7.13;;;;;;;9.29;100.00;102355.66;5043406;28;20444;-62
2023/02/20 10:16:34;;;;;;;23.90;7.90;;;;;;;9.26;100.00;102345.13;5044350;28;20434;-59
2023/02/20 10:19:32;;;;;;;17.17;7.07;;;;;;;9.35;100.00;102338.09;5044517;28;20487;-58
2023/02/20 10:22:19;;;;;;;18.38;7.03;;;;;;;9.32;100.00;102361.78;5021432;28;20124;-56
2023/02/20 10:24:59;;;;;;;17.42;6.80;;;;;;;9.22;100.00;102344.28;5046633;28;20139;-58
2023/02/20 10:27:31;;;;;;;14.43;6.70;;;;;;;9.36;100.00;102331.06;5045073;28;20072;-60
2023/02/20 10:29:58;;;;;;;17.60;6.43;;;;;;;9.31;100.00;102341.63;5046855;28;20025;-61
2023/02/20 10:32:57;;;;;;;16.60;6.97;;;;;;;9.47;100.00;102331.03;5045326;28;20060;-61
2023/02/20 10:35:26;;;;;;;14.75;6.35;;;;;;;9.53;100.00;102344.16;5044381;28;20021;-56
2023/02/20 10:37:54;;;;;;;16.10;6.15;;;;;;;9.60;100.00;102351.13;5045993;28;20021;-62
2023/02/20 10:40:51;;;;;;;13.82;5.88;;;;;;;9.64;100.00;102338.84;5046421;28;20128;-57
2023/02/20 10:43:19;;;;;;;14.10;5.80;;;;;;;9.52;100.00;102315.22;5043147;28;20118;-62
2023/02/20 10:45:44;;;;;;;20.03;6.17;;;;;;;9.53;100.00;102344.16;5033609;28;20025;-61
2023/02/20 10:48:14;;;;;;;10.65;4.97;;;;;;;9.58;100.00;102329.19;5038285;28;20440;-60
2023/02/20 10:50:45;;;;;;;16.13;5.50;;;;;;;9.56;100.00;102374.81;5038891;28;20332;-57
2023/02/20 10:53:38;;;;;;;12.25;4.90;;;;;;;9.69;100.00;102357.22;5042612;28;20538;-58
2023/02/20 10:56:19;;;;;;;10.27;4.93;;;;;;;9.81;100.00;102349.25;5038228;28;20044;-58
2023/02/20 10:58:54;;;;;;;60.15;6.47;;;;;;;9.68;100.00;102337.94;5077434;28;20071;-60
2023/02/20 11:01:22;;;;;;;14.40;4.70;;;;;;;9.62;100.00;102322.16;5045346;28;20116;-59
2023/02/20 11:03:59;;;;;;;11.07;4.32;;;;;;;9.61;100.00;102308.13;5045600;28;20017;-62
2023/02/20 11:06:30;;;;;;;13.23;4.75;;;;;;;9.58;100.00;102344.13;5043195;28;20485;-56
2023/02/20 11:08:55;;;;;;;18.63;4.93;;;;;;;9.69;100.00;102321.25;5038195;28;20017;-56
2023/02/20 11:11:22;;;;;;;9.63;4.07;;;;;;;9.66;100.00;102337.03;5046477;28;20159;-58
2023/02/20 11:13:48;;;;;;;9.88;4.05;;;;;;;9.61;100.00;102336.22;5044924;28;20543;-57
2023/02/20 11:16:22;;;;;;;17.90;4.55;;;;;;;9.66;100.00;102354.63;5045784;28;20100;-56
2023/02/20 11:18:48;;;;;;;12.15;4.47;;;;;;;9.71;100.00;102331.75;5044383;28;20100;-60
2023/02/20 11:21:41;;;;;;;12.25;4.47;;;;;;;9.75;100.00;102332.63;5044825;28;20151;-57
2023/02/20 11:24:39;;;;;;;13.25;4.78;;;;;;;9.95;100.00;102303.50;5044732;28;20031;-57
2023/02/20 11:27:18;;;;;;;13.27;4.07;;;;;;;9.89;100.00;102298.28;5041584;28;20044;-59
2023/02/20 11:29:46;;;;;;;10.98;3.50;;;;;;;9.96;100.00;102310.53;5044442;28;20505;-59
2023/02/20 11:32:22;;;;;;;8.30;3.17;;;;;;;10.11;100.00;102315.69;5045746;28;20033;-60
2023/02/20 11:34:50;;;;;;;10.52;3.88;;;;;;;10.20;100.00;102298.03;5044864;28;20130;-56
2023/02/20 11:37:16;;;;;;;13.18;3.58;;;;;;;10.11;100.00;102299.88;5060826;28;20021;-57
2023/02/20 11:39:46;;;;;;;17.52;3.92;;;;;;;10.20;100.00;102298.03;5044419;28;20120;-56